sensor_id;sensor_type;location;lat;lon;timestamp;P1;durP1;ratioP1;P2;durP2;ratioP2
12681;SDS011;6405;59.208;18.216;2022-10-16T00:01:19;24.50;;;16.50;;
12681;SDS011;6405;59.208;18.216;2022-10-16T00:03:49;26.80;;;16.70;;
12681;SDS011;6405;59.208;18.216;2022-10-16T00:06:18;27.80;;;16.90;;
12681;SDS011;6405;59.208;18.216;2022-10-16T00:08:45;25.27;;;15.80;;
12681;SDS011;6405;59.208;18.216;2022-10-16T00:11:17;27.73;;;16.80;;
12681;SDS011;6405;59.208;18.216;2022-10-16T00:13:47;21.67;;;15.23;;
12681;SDS011;6405;59.208;18.216;2022-10-16T00:16:15;23.20;;;16.00;;
12681;SDS011;6405;59.208;18.216;2022-10-16T00:18:44;25.20;;;16.47;;
12681;SDS011;6405;59.208;18.216;2022-10-16T00:21:20;24.90;;;16.30;;
12681;SDS011;6405;59.208;18.216;2022-10-16T00:23:52;27.63;;;15.67;;
12681;SDS011;6405;59.208;18.216;2022-10-16T00:26:20;22.57;;;15.27;;
12681;SDS011;6405;59.208;18.216;2022-10-16T00:28:49;21.07;;;15.57;;
12681;SDS011;6405;59.208;18.216;2022-10-16T00:31:18;18.00;;;13.77;;
12681;SDS011;6405;59.208;18.216;2022-10-16T00:33:46;18.60;;;14.67;;
12681;SDS011;6405;59.208;18.216;2022-10-16T00:36:17;21.67;;;14.23;;
12681;SDS011;6405;59.208;18.216;2022-10-16T00:38:45;20.03;;;14.07;;
12681;SDS011;6405;59.208;18.216;2022-10-16T00:41:14;19.80;;;14.23;;
12681;SDS011;6405;59.208;18.216;2022-10-16T00:48:42;21.93;;;15.40;;
12681;SDS011;6405;59.208;18.216;2022-10-16T00:51:11;20.27;;;14.53;;
12681;SDS011;6405;59.208;18.216;2022-10-16T00:53:38;22.00;;;14.77;;
12681;SDS011;6405;59.208;18.216;2022-10-16T00:56:06;21.03;;;16.00;;
12681;SDS011;6405;59.208;18.216;2022-10-16T00:58:33;22.33;;;15.47;;
12681;SDS011;6405;59.208;18.216;2022-10-16T01:01:00;21.73;;;15.93;;
12681;SDS011;6405;59.208;18.216;2022-10-16T01:03:31;21.53;;;15.70;;
12681;SDS011;6405;59.208;18.216;2022-10-16T01:06:21;22.97;;;16.30;;
12681;SDS011;6405;59.208;18.216;2022-10-16T01:08:49;23.57;;;16.30;;
12681;SDS011;6405;59.208;18.216;2022-10-16T01:11:30;23.13;;;16.13;;
12681;SDS011;6405;59.208;18.216;2022-10-16T01:14:06;25.00;;;16.00;;
12681;SDS011;6405;59.208;18.216;2022-10-16T01:16:43;21.90;;;15.00;;
12681;SDS011;6405;59.208;18.216;2022-10-16T01:21:47;23.23;;;14.23;;
12681;SDS011;6405;59.208;18.216;2022-10-16T01:35:04;23.00;;;15.20;;
12681;SDS011;6405;59.208;18.216;2022-10-16T01:37:33;23.20;;;15.63;;
12681;SDS011;6405;59.208;18.216;2022-10-16T01:40:05;24.37;;;16.27;;
12681;SDS011;6405;59.208;18.216;2022-10-16T01:42:43;27.90;;;16.87;;
12681;SDS011;6405;59.208;18.216;2022-10-16T01:45:17;29.13;;;17.90;;
12681;SDS011;6405;59.208;18.216;2022-10-16T01:47:46;27.70;;;16.43;;
12681;SDS011;6405;59.208;18.216;2022-10-16T01:50:16;28.17;;;17.20;;
12681;SDS011;6405;59.208;18.216;2022-10-16T01:52:47;31.30;;;18.50;;
12681;SDS011;6405;59.208;18.216;2022-10-16T01:55:19;33.20;;;20.10;;
12681;SDS011;6405;59.208;18.216;2022-10-16T01:57:53;38.37;;;18.17;;
12681;SDS011;6405;59.208;18.216;2022-10-16T02:00:22;27.53;;;18.40;;
12681;SDS011;6405;59.208;18.216;2022-10-16T02:02:49;32.53;;;19.03;;
12681;SDS011;6405;59.208;18.216;2022-10-16T02:05:44;28.00;;;18.10;;
12681;SDS011;6405;59.208;18.216;2022-10-16T02:08:13;25.17;;;17.10;;
12681;SDS011;6405;59.208;18.216;2022-10-16T02:10:40;25.97;;;17.83;;
12681;SDS011;6405;59.208;18.216;2022-10-16T02:13:09;26.03;;;17.57;;
12681;SDS011;6405;59.208;18.216;2022-10-16T02:15:54;24.90;;;16.20;;
12681;SDS011;6405;59.208;18.216;2022-10-16T02:18:21;27.27;;;17.30;;
12681;SDS011;6405;59.208;18.216;2022-10-16T02:20:50;23.87;;;16.87;;
12681;SDS011;6405;59.208;18.216;2022-10-16T02:23:35;25.07;;;16.30;;
12681;SDS011;6405;59.208;18.216;2022-10-16T02:26:03;21.90;;;14.63;;
12681;SDS011;6405;59.208;18.216;2022-10-16T02:28:39;25.03;;;15.40;;
12681;SDS011;6405;59.208;18.216;2022-10-16T02:31:11;22.97;;;14.77;;
12681;SDS011;6405;59.208;18.216;2022-10-16T02:33:42;21.60;;;14.90;;
12681;SDS011;6405;59.208;18.216;2022-10-16T02:36:11;21.67;;;14.37;;
12681;SDS011;6405;59.208;18.216;2022-10-16T02:38:39;21.93;;;13.33;;
12681;SDS011;6405;59.208;18.216;2022-10-16T02:41:06;18.50;;;13.13;;
12681;SDS011;6405;59.208;18.216;2022-10-16T02:43:33;16.43;;;12.17;;
12681;SDS011;6405;59.208;18.216;2022-10-16T02:46:00;19.00;;;12.93;;
12681;SDS011;6405;59.208;18.216;2022-10-16T02:48:28;22.37;;;12.60;;
12681;SDS011;6405;59.208;18.216;2022-10-16T02:50:54;17.87;;;13.57;;
12681;SDS011;6405;59.208;18.216;2022-10-16T02:53:22;16.10;;;11.67;;
12681;SDS011;6405;59.208;18.216;2022-10-16T02:55:49;16.73;;;11.70;;
12681;SDS011;6405;59.208;18.216;2022-10-16T02:58:15;17.37;;;11.00;;
12681;SDS011;6405;59.208;18.216;2022-10-16T03:00:42;15.27;;;11.33;;
12681;SDS011;6405;59.208;18.216;2022-10-16T03:03:13;15.63;;;11.63;;
12681;SDS011;6405;59.208;18.216;2022-10-16T03:05:42;16.57;;;11.47;;
12681;SDS011;6405;59.208;18.216;2022-10-16T03:08:12;14.70;;;10.67;;
12681;SDS011;6405;59.208;18.216;2022-10-16T03:10:39;15.27;;;10.70;;
12681;SDS011;6405;59.208;18.216;2022-10-16T03:13:05;15.60;;;10.50;;
12681;SDS011;6405;59.208;18.216;2022-10-16T03:15:32;12.03;;;10.17;;
12681;SDS011;6405;59.208;18.216;2022-10-16T03:17:59;12.13;;;10.23;;
12681;SDS011;6405;59.208;18.216;2022-10-16T03:20:25;14.10;;;9.87;;
12681;SDS011;6405;59.208;18.216;2022-10-16T03:22:52;12.23;;;9.47;;
12681;SDS011;6405;59.208;18.216;2022-10-16T03:25:20;13.30;;;10.13;;
12681;SDS011;6405;59.208;18.216;2022-10-16T03:27:47;14.60;;;10.00;;
12681;SDS011;6405;59.208;18.216;2022-10-16T03:30:13;15.20;;;9.80;;
12681;SDS011;6405;59.208;18.216;2022-10-16T03:32:39;12.93;;;9.77;;
12681;SDS011;6405;59.208;18.216;2022-10-16T03:35:06;12.97;;;9.47;;
12681;SDS011;6405;59.208;18.216;2022-10-16T03:37:32;13.50;;;9.90;;
12681;SDS011;6405;59.208;18.216;2022-10-16T03:40:00;14.93;;;9.43;;
12681;SDS011;6405;59.208;18.216;2022-10-16T03:42:27;13.60;;;9.43;;
12681;SDS011;6405;59.208;18.216;2022-10-16T03:44:53;12.33;;;9.20;;
12681;SDS011;6405;59.208;18.216;2022-10-16T03:47:20;11.30;;;8.90;;
12681;SDS011;6405;59.208;18.216;2022-10-16T03:49:49;11.63;;;8.97;;
12681;SDS011;6405;59.208;18.216;2022-10-16T03:52:16;11.53;;;8.33;;
12681;SDS011;6405;59.208;18.216;2022-10-16T03:54:45;11.50;;;8.30;;
12681;SDS011;6405;59.208;18.216;2022-10-16T03:57:11;12.63;;;8.30;;
12681;SDS011;6405;59.208;18.216;2022-10-16T03:59:39;9.23;;;8.20;;
12681;SDS011;6405;59.208;18.216;2022-10-16T04:02:05;12.10;;;8.70;;
12681;SDS011;6405;59.208;18.216;2022-10-16T04:04:34;10.93;;;8.23;;
12681;SDS011;6405;59.208;18.216;2022-10-16T04:07:01;10.60;;;8.10;;
12681;SDS011;6405;59.208;18.216;2022-10-16T04:09:27;10.40;;;7.67;;
12681;SDS011;6405;59.208;18.216;2022-10-16T04:11:53;13.93;;;8.57;;
12681;SDS011;6405;59.208;18.216;2022-10-16T04:14:22;11.77;;;7.90;;
12681;SDS011;6405;59.208;18.216;2022-10-16T04:16:49;9.53;;;7.60;;
12681;SDS011;6405;59.208;18.216;2022-10-16T04:19:16;9.30;;;8.30;;
12681;SDS011;6405;59.208;18.216;2022-10-16T04:21:43;9.83;;;7.70;;
12681;SDS011;6405;59.208;18.216;2022-10-16T04:24:09;12.57;;;7.57;;
12681;SDS011;6405;59.208;18.216;2022-10-16T04:26:38;11.27;;;8.37;;
12681;SDS011;6405;59.208;18.216;2022-10-16T04:29:05;10.07;;;8.17;;
12681;SDS011;6405;59.208;18.216;2022-10-16T04:31:33;11.20;;;8.03;;
12681;SDS011;6405;59.208;18.216;2022-10-16T04:34:00;11.87;;;7.17;;
12681;SDS011;6405;59.208;18.216;2022-10-16T04:36:27;10.03;;;8.37;;
12681;SDS011;6405;59.208;18.216;2022-10-16T04:38:54;10.67;;;7.10;;
12681;SDS011;6405;59.208;18.216;2022-10-16T04:41:21;9.47;;;7.80;;
12681;SDS011;6405;59.208;18.216;2022-10-16T04:43:48;11.37;;;7.83;;
12681;SDS011;6405;59.208;18.216;2022-10-16T04:46:14;9.37;;;7.77;;
12681;SDS011;6405;59.208;18.216;2022-10-16T04:48:41;9.57;;;7.63;;
12681;SDS011;6405;59.208;18.216;2022-10-16T04:51:08;9.77;;;8.07;;
12681;SDS011;6405;59.208;18.216;2022-10-16T04:53:34;8.23;;;7.27;;
12681;SDS011;6405;59.208;18.216;2022-10-16T04:56:01;8.43;;;7.17;;
12681;SDS011;6405;59.208;18.216;2022-10-16T04:58:27;9.67;;;7.40;;
12681;SDS011;6405;59.208;18.216;2022-10-16T05:00:53;10.10;;;7.73;;
12681;SDS011;6405;59.208;18.216;2022-10-16T05:03:19;12.37;;;7.47;;
12681;SDS011;6405;59.208;18.216;2022-10-16T05:05:47;10.70;;;7.60;;
12681;SDS011;6405;59.208;18.216;2022-10-16T05:08:14;10.67;;;7.47;;
12681;SDS011;6405;59.208;18.216;2022-10-16T05:10:42;10.60;;;7.67;;
12681;SDS011;6405;59.208;18.216;2022-10-16T05:13:09;10.17;;;7.07;;
12681;SDS011;6405;59.208;18.216;2022-10-16T05:15:36;10.57;;;7.37;;
12681;SDS011;6405;59.208;18.216;2022-10-16T05:18:03;10.10;;;7.37;;
12681;SDS011;6405;59.208;18.216;2022-10-16T05:20:30;13.57;;;8.07;;
12681;SDS011;6405;59.208;18.216;2022-10-16T05:22:57;9.27;;;7.93;;
12681;SDS011;6405;59.208;18.216;2022-10-16T05:25:23;13.43;;;7.67;;
12681;SDS011;6405;59.208;18.216;2022-10-16T05:27:50;12.70;;;8.30;;
12681;SDS011;6405;59.208;18.216;2022-10-16T05:30:17;15.90;;;8.87;;
12681;SDS011;6405;59.208;18.216;2022-10-16T05:32:48;14.17;;;9.17;;
12681;SDS011;6405;59.208;18.216;2022-10-16T05:35:16;13.10;;;8.77;;
12681;SDS011;6405;59.208;18.216;2022-10-16T05:37:44;19.80;;;9.40;;
12681;SDS011;6405;59.208;18.216;2022-10-16T05:40:10;13.67;;;9.53;;
12681;SDS011;6405;59.208;18.216;2022-10-16T05:42:39;11.90;;;8.97;;
12681;SDS011;6405;59.208;18.216;2022-10-16T05:45:07;14.07;;;9.97;;
12681;SDS011;6405;59.208;18.216;2022-10-16T05:47:36;15.83;;;11.43;;
12681;SDS011;6405;59.208;18.216;2022-10-16T05:50:04;15.40;;;11.57;;
12681;SDS011;6405;59.208;18.216;2022-10-16T05:52:31;18.13;;;12.03;;
12681;SDS011;6405;59.208;18.216;2022-10-16T05:54:58;21.83;;;13.57;;
12681;SDS011;6405;59.208;18.216;2022-10-16T05:57:26;17.07;;;12.40;;
12681;SDS011;6405;59.208;18.216;2022-10-16T05:59:53;24.13;;;15.40;;
12681;SDS011;6405;59.208;18.216;2022-10-16T06:02:20;23.27;;;14.97;;
12681;SDS011;6405;59.208;18.216;2022-10-16T06:04:47;24.70;;;15.93;;
12681;SDS011;6405;59.208;18.216;2022-10-16T06:07:14;25.67;;;16.13;;
12681;SDS011;6405;59.208;18.216;2022-10-16T06:09:41;23.43;;;16.33;;
12681;SDS011;6405;59.208;18.216;2022-10-16T06:12:07;25.03;;;16.40;;
12681;SDS011;6405;59.208;18.216;2022-10-16T06:14:34;26.70;;;17.63;;
12681;SDS011;6405;59.208;18.216;2022-10-16T06:17:01;26.97;;;17.30;;
12681;SDS011;6405;59.208;18.216;2022-10-16T06:19:27;25.50;;;17.17;;
12681;SDS011;6405;59.208;18.216;2022-10-16T06:21:55;27.20;;;16.93;;
12681;SDS011;6405;59.208;18.216;2022-10-16T06:24:24;31.87;;;18.27;;
12681;SDS011;6405;59.208;18.216;2022-10-16T06:26:51;33.40;;;17.53;;
12681;SDS011;6405;59.208;18.216;2022-10-16T06:29:17;28.80;;;16.70;;
12681;SDS011;6405;59.208;18.216;2022-10-16T06:31:44;26.40;;;15.77;;
12681;SDS011;6405;59.208;18.216;2022-10-16T06:34:12;24.43;;;15.47;;
12681;SDS011;6405;59.208;18.216;2022-10-16T06:36:40;24.23;;;14.93;;
12681;SDS011;6405;59.208;18.216;2022-10-16T06:39:06;23.43;;;15.90;;
12681;SDS011;6405;59.208;18.216;2022-10-16T06:41:36;25.50;;;15.87;;
12681;SDS011;6405;59.208;18.216;2022-10-16T06:44:04;26.63;;;16.23;;
12681;SDS011;6405;59.208;18.216;2022-10-16T06:46:32;24.23;;;15.43;;
12681;SDS011;6405;59.208;18.216;2022-10-16T06:48:59;24.90;;;16.07;;
12681;SDS011;6405;59.208;18.216;2022-10-16T06:51:27;23.17;;;13.87;;
12681;SDS011;6405;59.208;18.216;2022-10-16T06:53:55;24.00;;;16.93;;
12681;SDS011;6405;59.208;18.216;2022-10-16T06:56:27;25.50;;;17.40;;
12681;SDS011;6405;59.208;18.216;2022-10-16T06:58:55;29.97;;;18.20;;
12681;SDS011;6405;59.208;18.216;2022-10-16T07:01:23;24.83;;;16.40;;
12681;SDS011;6405;59.208;18.216;2022-10-16T07:03:51;26.03;;;17.97;;
12681;SDS011;6405;59.208;18.216;2022-10-16T07:06:19;26.83;;;17.47;;
12681;SDS011;6405;59.208;18.216;2022-10-16T07:08:49;28.60;;;17.67;;
12681;SDS011;6405;59.208;18.216;2022-10-16T07:11:18;26.67;;;17.47;;
12681;SDS011;6405;59.208;18.216;2022-10-16T07:13:49;26.77;;;17.53;;
12681;SDS011;6405;59.208;18.216;2022-10-16T07:16:18;23.27;;;16.43;;
12681;SDS011;6405;59.208;18.216;2022-10-16T07:18:47;29.43;;;17.40;;
12681;SDS011;6405;59.208;18.216;2022-10-16T07:21:16;26.23;;;16.83;;
12681;SDS011;6405;59.208;18.216;2022-10-16T07:23:52;27.20;;;16.43;;
12681;SDS011;6405;59.208;18.216;2022-10-16T07:26:21;27.30;;;16.47;;
12681;SDS011;6405;59.208;18.216;2022-10-16T07:28:48;23.90;;;16.23;;
12681;SDS011;6405;59.208;18.216;2022-10-16T07:31:16;25.30;;;15.57;;
12681;SDS011;6405;59.208;18.216;2022-10-16T07:33:43;22.93;;;14.47;;
12681;SDS011;6405;59.208;18.216;2022-10-16T07:36:13;21.63;;;14.80;;
12681;SDS011;6405;59.208;18.216;2022-10-16T07:38:43;18.03;;;12.97;;
12681;SDS011;6405;59.208;18.216;2022-10-16T07:41:11;20.33;;;13.10;;
12681;SDS011;6405;59.208;18.216;2022-10-16T07:43:40;18.70;;;12.90;;
12681;SDS011;6405;59.208;18.216;2022-10-16T07:46:13;17.30;;;11.93;;
12681;SDS011;6405;59.208;18.216;2022-10-16T07:48:40;15.73;;;10.63;;
12681;SDS011;6405;59.208;18.216;2022-10-16T07:51:12;14.30;;;10.60;;
12681;SDS011;6405;59.208;18.216;2022-10-16T07:53:40;15.13;;;10.10;;
12681;SDS011;6405;59.208;18.216;2022-10-16T07:56:08;11.50;;;9.00;;
12681;SDS011;6405;59.208;18.216;2022-10-16T07:58:35;11.70;;;8.23;;
12681;SDS011;6405;59.208;18.216;2022-10-16T08:01:09;10.87;;;8.53;;
12681;SDS011;6405;59.208;18.216;2022-10-16T08:03:44;11.10;;;8.37;;
12681;SDS011;6405;59.208;18.216;2022-10-16T08:06:11;9.33;;;7.90;;
12681;SDS011;6405;59.208;18.216;2022-10-16T08:08:37;9.77;;;7.03;;
12681;SDS011;6405;59.208;18.216;2022-10-16T08:11:05;11.80;;;7.87;;
12681;SDS011;6405;59.208;18.216;2022-10-16T08:13:32;10.90;;;8.20;;
12681;SDS011;6405;59.208;18.216;2022-10-16T08:15:59;11.37;;;8.33;;
12681;SDS011;6405;59.208;18.216;2022-10-16T08:18:25;11.17;;;7.10;;
12681;SDS011;6405;59.208;18.216;2022-10-16T08:20:55;9.67;;;7.00;;
12681;SDS011;6405;59.208;18.216;2022-10-16T08:23:24;10.40;;;7.60;;
12681;SDS011;6405;59.208;18.216;2022-10-16T08:25:52;9.73;;;7.47;;
12681;SDS011;6405;59.208;18.216;2022-10-16T08:28:20;9.90;;;6.83;;
12681;SDS011;6405;59.208;18.216;2022-10-16T08:30:47;10.80;;;7.13;;
12681;SDS011;6405;59.208;18.216;2022-10-16T08:33:13;7.83;;;6.50;;
12681;SDS011;6405;59.208;18.216;2022-10-16T08:35:41;9.67;;;7.00;;
12681;SDS011;6405;59.208;18.216;2022-10-16T08:38:08;10.00;;;7.20;;
12681;SDS011;6405;59.208;18.216;2022-10-16T08:40:35;9.17;;;7.20;;
12681;SDS011;6405;59.208;18.216;2022-10-16T08:46:04;7.67;;;6.40;;
12681;SDS011;6405;59.208;18.216;2022-10-16T08:48:51;8.70;;;6.40;;
12681;SDS011;6405;59.208;18.216;2022-10-16T08:51:29;8.83;;;6.67;;
12681;SDS011;6405;59.208;18.216;2022-10-16T08:53:59;9.63;;;6.20;;
12681;SDS011;6405;59.208;18.216;2022-10-16T08:56:31;6.77;;;6.07;;
12681;SDS011;6405;59.208;18.216;2022-10-16T08:58:59;6.13;;;5.37;;
12681;SDS011;6405;59.208;18.216;2022-10-16T09:01:35;6.97;;;6.20;;
12681;SDS011;6405;59.208;18.216;2022-10-16T09:09:49;9.10;;;5.40;;
12681;SDS011;6405;59.208;18.216;2022-10-16T09:17:51;8.03;;;6.10;;
12681;SDS011;6405;59.208;18.216;2022-10-16T09:23:14;9.93;;;7.00;;
12681;SDS011;6405;59.208;18.216;2022-10-16T09:26:11;7.93;;;6.03;;
12681;SDS011;6405;59.208;18.216;2022-10-16T09:28:42;7.40;;;5.43;;
12681;SDS011;6405;59.208;18.216;2022-10-16T09:31:15;7.43;;;5.07;;
12681;SDS011;6405;59.208;18.216;2022-10-16T09:33:44;5.40;;;4.87;;
12681;SDS011;6405;59.208;18.216;2022-10-16T09:36:14;7.53;;;5.30;;
12681;SDS011;6405;59.208;18.216;2022-10-16T09:38:41;6.07;;;5.47;;
12681;SDS011;6405;59.208;18.216;2022-10-16T09:41:26;6.57;;;4.93;;
12681;SDS011;6405;59.208;18.216;2022-10-16T09:46:24;6.27;;;5.67;;
12681;SDS011;6405;59.208;18.216;2022-10-16T09:49:03;6.10;;;5.50;;
12681;SDS011;6405;59.208;18.216;2022-10-16T09:51:35;6.90;;;5.70;;
12681;SDS011;6405;59.208;18.216;2022-10-16T09:56:36;4.07;;;3.67;;
12681;SDS011;6405;59.208;18.216;2022-10-16T09:59:10;6.53;;;4.20;;
12681;SDS011;6405;59.208;18.216;2022-10-16T10:01:39;5.10;;;4.47;;
12681;SDS011;6405;59.208;18.216;2022-10-16T10:04:09;5.93;;;4.30;;
12681;SDS011;6405;59.208;18.216;2022-10-16T10:06:43;5.30;;;4.70;;
12681;SDS011;6405;59.208;18.216;2022-10-16T10:11:54;6.10;;;3.70;;
12681;SDS011;6405;59.208;18.216;2022-10-16T10:22:19;7.00;;;3.47;;
12681;SDS011;6405;59.208;18.216;2022-10-16T10:27:39;4.63;;;3.30;;
12681;SDS011;6405;59.208;18.216;2022-10-16T10:36:00;5.03;;;3.80;;
12681;SDS011;6405;59.208;18.216;2022-10-16T10:38:39;5.80;;;3.30;;
12681;SDS011;6405;59.208;18.216;2022-10-16T10:43:48;11.33;;;3.60;;
12681;SDS011;6405;59.208;18.216;2022-10-16T10:55:13;6.30;;;3.40;;
12681;SDS011;6405;59.208;18.216;2022-10-16T11:08:41;4.93;;;2.67;;
12681;SDS011;6405;59.208;18.216;2022-10-16T11:11:16;4.80;;;2.80;;
12681;SDS011;6405;59.208;18.216;2022-10-16T11:16:27;7.17;;;3.20;;
12681;SDS011;6405;59.208;18.216;2022-10-16T11:18:58;3.80;;;3.20;;
12681;SDS011;6405;59.208;18.216;2022-10-16T11:21:26;6.80;;;3.37;;
12681;SDS011;6405;59.208;18.216;2022-10-16T11:23:59;5.47;;;3.67;;
12681;SDS011;6405;59.208;18.216;2022-10-16T11:26:33;6.73;;;3.23;;
12681;SDS011;6405;59.208;18.216;2022-10-16T11:29:04;4.93;;;3.40;;
12681;SDS011;6405;59.208;18.216;2022-10-16T11:31:41;7.70;;;4.40;;
12681;SDS011;6405;59.208;18.216;2022-10-16T11:36:58;5.13;;;2.90;;
12681;SDS011;6405;59.208;18.216;2022-10-16T11:39:40;6.97;;;2.57;;
12681;SDS011;6405;59.208;18.216;2022-10-16T11:42:27;5.80;;;3.10;;
12681;SDS011;6405;59.208;18.216;2022-10-16T11:47:42;5.87;;;3.20;;
12681;SDS011;6405;59.208;18.216;2022-10-16T11:53:03;6.17;;;4.50;;
12681;SDS011;6405;59.208;18.216;2022-10-16T11:55:36;6.13;;;4.23;;
12681;SDS011;6405;59.208;18.216;2022-10-16T11:58:08;6.50;;;4.10;;
12681;SDS011;6405;59.208;18.216;2022-10-16T12:09:34;5.13;;;3.60;;
12681;SDS011;6405;59.208;18.216;2022-10-16T12:12:04;4.77;;;3.57;;
12681;SDS011;6405;59.208;18.216;2022-10-16T12:17:23;4.83;;;3.23;;
12681;SDS011;6405;59.208;18.216;2022-10-16T12:22:52;4.23;;;3.03;;
12681;SDS011;6405;59.208;18.216;2022-10-16T12:25:25;4.40;;;3.10;;
12681;SDS011;6405;59.208;18.216;2022-10-16T12:28:04;4.13;;;3.30;;
12681;SDS011;6405;59.208;18.216;2022-10-16T12:30:34;4.37;;;2.77;;
12681;SDS011;6405;59.208;18.216;2022-10-16T12:33:20;5.70;;;3.00;;
12681;SDS011;6405;59.208;18.216;2022-10-16T12:35:47;6.53;;;2.73;;
12681;SDS011;6405;59.208;18.216;2022-10-16T12:40:44;3.33;;;3.03;;
12681;SDS011;6405;59.208;18.216;2022-10-16T12:45:46;7.13;;;2.83;;
12681;SDS011;6405;59.208;18.216;2022-10-16T12:48:20;3.57;;;2.43;;
12681;SDS011;6405;59.208;18.216;2022-10-16T12:50:48;5.27;;;3.37;;
12681;SDS011;6405;59.208;18.216;2022-10-16T12:53:18;3.27;;;2.10;;
12681;SDS011;6405;59.208;18.216;2022-10-16T13:20:50;3.70;;;1.90;;
12681;SDS011;6405;59.208;18.216;2022-10-16T13:26:46;5.27;;;2.40;;
12681;SDS011;6405;59.208;18.216;2022-10-16T13:29:15;3.43;;;2.20;;
12681;SDS011;6405;59.208;18.216;2022-10-16T13:31:43;3.70;;;2.13;;
12681;SDS011;6405;59.208;18.216;2022-10-16T13:34:15;6.27;;;2.30;;
12681;SDS011;6405;59.208;18.216;2022-10-16T13:36:45;4.90;;;2.10;;
12681;SDS011;6405;59.208;18.216;2022-10-16T13:42:06;4.40;;;2.60;;
12681;SDS011;6405;59.208;18.216;2022-10-16T13:44:48;7.33;;;2.67;;
12681;SDS011;6405;59.208;18.216;2022-10-16T13:47:17;5.73;;;2.43;;
12681;SDS011;6405;59.208;18.216;2022-10-16T13:50:02;4.97;;;2.73;;
12681;SDS011;6405;59.208;18.216;2022-10-16T13:52:39;4.77;;;2.70;;
12681;SDS011;6405;59.208;18.216;2022-10-16T13:55:12;4.80;;;2.27;;
12681;SDS011;6405;59.208;18.216;2022-10-16T13:57:43;5.40;;;2.53;;
12681;SDS011;6405;59.208;18.216;2022-10-16T14:00:23;5.33;;;2.27;;
12681;SDS011;6405;59.208;18.216;2022-10-16T14:03:04;4.50;;;2.40;;
12681;SDS011;6405;59.208;18.216;2022-10-16T14:05:32;4.73;;;1.87;;
12681;SDS011;6405;59.208;18.216;2022-10-16T14:08:00;6.93;;;2.67;;
12681;SDS011;6405;59.208;18.216;2022-10-16T14:10:29;4.70;;;2.27;;
12681;SDS011;6405;59.208;18.216;2022-10-16T14:13:07;5.47;;;2.10;;
12681;SDS011;6405;59.208;18.216;2022-10-16T14:15:45;4.17;;;2.40;;
12681;SDS011;6405;59.208;18.216;2022-10-16T14:18:17;6.37;;;2.73;;
12681;SDS011;6405;59.208;18.216;2022-10-16T14:20:48;8.53;;;2.90;;
12681;SDS011;6405;59.208;18.216;2022-10-16T14:23:19;6.70;;;2.20;;
12681;SDS011;6405;59.208;18.216;2022-10-16T14:26:11;3.60;;;2.20;;
12681;SDS011;6405;59.208;18.216;2022-10-16T14:28:40;4.53;;;1.87;;
12681;SDS011;6405;59.208;18.216;2022-10-16T14:31:25;5.50;;;2.37;;
12681;SDS011;6405;59.208;18.216;2022-10-16T14:33:52;6.47;;;2.30;;
12681;SDS011;6405;59.208;18.216;2022-10-16T14:36:19;3.63;;;2.63;;
12681;SDS011;6405;59.208;18.216;2022-10-16T14:39:02;3.10;;;2.50;;
12681;SDS011;6405;59.208;18.216;2022-10-16T14:41:33;6.20;;;2.27;;
12681;SDS011;6405;59.208;18.216;2022-10-16T14:44:11;8.07;;;2.33;;
12681;SDS011;6405;59.208;18.216;2022-10-16T14:46:39;4.17;;;2.43;;
12681;SDS011;6405;59.208;18.216;2022-10-16T14:51:38;5.23;;;2.50;;
12681;SDS011;6405;59.208;18.216;2022-10-16T14:54:08;4.33;;;2.03;;
12681;SDS011;6405;59.208;18.216;2022-10-16T14:56:54;4.63;;;2.13;;
12681;SDS011;6405;59.208;18.216;2022-10-16T14:59:25;6.30;;;3.13;;
12681;SDS011;6405;59.208;18.216;2022-10-16T15:02:47;4.70;;;2.10;;
12681;SDS011;6405;59.208;18.216;2022-10-16T15:04:52;5.90;;;2.30;;
12681;SDS011;6405;59.208;18.216;2022-10-16T15:07:18;5.83;;;2.83;;
12681;SDS011;6405;59.208;18.216;2022-10-16T15:09:45;6.23;;;2.50;;
12681;SDS011;6405;59.208;18.216;2022-10-16T15:12:11;5.13;;;2.77;;
12681;SDS011;6405;59.208;18.216;2022-10-16T15:14:38;3.17;;;2.50;;
12681;SDS011;6405;59.208;18.216;2022-10-16T15:17:05;7.03;;;2.67;;
12681;SDS011;6405;59.208;18.216;2022-10-16T15:19:34;4.77;;;2.50;;
12681;SDS011;6405;59.208;18.216;2022-10-16T15:22:01;4.93;;;2.70;;
12681;SDS011;6405;59.208;18.216;2022-10-16T15:24:28;7.43;;;2.63;;
12681;SDS011;6405;59.208;18.216;2022-10-16T15:26:54;7.93;;;2.77;;
12681;SDS011;6405;59.208;18.216;2022-10-16T15:29:21;4.77;;;2.63;;
12681;SDS011;6405;59.208;18.216;2022-10-16T15:31:47;5.17;;;2.73;;
12681;SDS011;6405;59.208;18.216;2022-10-16T15:34:13;4.97;;;2.57;;
12681;SDS011;6405;59.208;18.216;2022-10-16T15:36:39;4.80;;;2.67;;
12681;SDS011;6405;59.208;18.216;2022-10-16T15:39:05;7.83;;;2.97;;
12681;SDS011;6405;59.208;18.216;2022-10-16T15:41:44;6.43;;;3.03;;
12681;SDS011;6405;59.208;18.216;2022-10-16T15:44:17;7.30;;;1.70;;
12681;SDS011;6405;59.208;18.216;2022-10-16T15:46:45;6.07;;;1.33;;
12681;SDS011;6405;59.208;18.216;2022-10-16T15:49:13;3.13;;;0.80;;
12681;SDS011;6405;59.208;18.216;2022-10-16T15:51:41;2.40;;;0.80;;
12681;SDS011;6405;59.208;18.216;2022-10-16T15:54:08;2.17;;;0.80;;
12681;SDS011;6405;59.208;18.216;2022-10-16T15:56:35;3.33;;;0.80;;
12681;SDS011;6405;59.208;18.216;2022-10-16T15:59:03;0.70;;;0.50;;
12681;SDS011;6405;59.208;18.216;2022-10-16T16:01:32;2.10;;;0.70;;
12681;SDS011;6405;59.208;18.216;2022-10-16T16:04:01;2.67;;;0.80;;
12681;SDS011;6405;59.208;18.216;2022-10-16T16:06:28;5.00;;;1.10;;
12681;SDS011;6405;59.208;18.216;2022-10-16T16:08:55;3.67;;;1.03;;
12681;SDS011;6405;59.208;18.216;2022-10-16T16:11:23;2.60;;;1.00;;
12681;SDS011;6405;59.208;18.216;2022-10-16T16:13:49;3.13;;;1.30;;
12681;SDS011;6405;59.208;18.216;2022-10-16T16:16:16;3.53;;;0.77;;
12681;SDS011;6405;59.208;18.216;2022-10-16T16:18:43;3.37;;;1.23;;
12681;SDS011;6405;59.208;18.216;2022-10-16T16:21:10;2.73;;;1.17;;
12681;SDS011;6405;59.208;18.216;2022-10-16T16:23:37;3.77;;;1.30;;
12681;SDS011;6405;59.208;18.216;2022-10-16T16:28:30;2.57;;;0.80;;
12681;SDS011;6405;59.208;18.216;2022-10-16T16:30:57;2.10;;;0.90;;
12681;SDS011;6405;59.208;18.216;2022-10-16T16:33:23;3.47;;;1.27;;
12681;SDS011;6405;59.208;18.216;2022-10-16T16:35:50;3.77;;;1.03;;
12681;SDS011;6405;59.208;18.216;2022-10-16T16:38:21;2.47;;;1.13;;
12681;SDS011;6405;59.208;18.216;2022-10-16T16:40:49;2.13;;;1.00;;
12681;SDS011;6405;59.208;18.216;2022-10-16T16:43:16;3.27;;;1.10;;
12681;SDS011;6405;59.208;18.216;2022-10-16T16:45:45;2.70;;;1.20;;
12681;SDS011;6405;59.208;18.216;2022-10-16T16:48:12;5.90;;;1.63;;
12681;SDS011;6405;59.208;18.216;2022-10-16T16:50:39;4.50;;;1.73;;
12681;SDS011;6405;59.208;18.216;2022-10-16T16:53:05;3.30;;;1.50;;
12681;SDS011;6405;59.208;18.216;2022-10-16T16:55:32;5.83;;;1.80;;
12681;SDS011;6405;59.208;18.216;2022-10-16T16:57:59;5.83;;;1.70;;
12681;SDS011;6405;59.208;18.216;2022-10-16T17:00:26;4.10;;;1.23;;
12681;SDS011;6405;59.208;18.216;2022-10-16T17:02:53;3.30;;;1.37;;
12681;SDS011;6405;59.208;18.216;2022-10-16T17:05:20;6.23;;;2.00;;
12681;SDS011;6405;59.208;18.216;2022-10-16T17:07:47;6.07;;;1.70;;
12681;SDS011;6405;59.208;18.216;2022-10-16T17:10:13;6.23;;;1.70;;
12681;SDS011;6405;59.208;18.216;2022-10-16T17:12:39;5.77;;;1.53;;
12681;SDS011;6405;59.208;18.216;2022-10-16T17:15:04;2.10;;;1.13;;
12681;SDS011;6405;59.208;18.216;2022-10-16T17:17:32;3.27;;;1.30;;
12681;SDS011;6405;59.208;18.216;2022-10-16T17:19:59;2.50;;;1.40;;